createdAt,value
2023-01-28T00:02:00.709Z,97972.89
2023-01-28T00:04:31.429Z,97963.16
2023-01-28T00:07:03.262Z,97957.80
2023-01-28T00:09:32.459Z,97952.91
2023-01-28T00:12:01.764Z,97943.23
2023-01-28T00:14:31.160Z,97945.19
2023-01-28T00:17:00.465Z,97943.20
2023-01-28T00:19:30.898Z,97944.02
2023-01-28T00:22:00.938Z,97939.02
2023-01-28T00:24:36.556Z,97934.73
2023-01-28T00:27:06.349Z,97929.89
2023-01-28T00:29:35.786Z,97928.02
2023-01-28T00:32:04.995Z,97925.31
2023-01-28T00:34:34.061Z,97922.55
2023-01-28T00:37:02.868Z,97924.13
2023-01-28T00:39:36.557Z,97918.48
2023-01-28T00:42:09.333Z,97915.13
2023-01-28T00:44:39.554Z,97915.63
2023-01-28T00:47:08.757Z,97913.40
2023-01-28T00:49:38.054Z,97909.77
2023-01-28T00:52:08.341Z,97907.27
2023-01-28T00:54:42.802Z,97901.17
2023-01-28T00:57:13.399Z,97893.46
2023-01-28T00:59:43.457Z,97885.02
2023-01-28T01:02:13.807Z,97883.36
2023-01-28T01:04:55.350Z,97876.21
2023-01-28T01:07:32.643Z,97849.04
2023-01-28T01:10:02.063Z,97818.13
2023-01-28T01:12:31.648Z,97814.13
2023-01-28T01:15:02.705Z,97807.00
2023-01-28T01:17:32.648Z,97803.75
2023-01-28T01:20:01.870Z,97803.61
2023-01-28T01:22:34.181Z,97786.28
2023-01-28T01:25:05.448Z,97774.58
2023-01-28T01:27:34.860Z,97768.80
2023-01-28T01:30:03.971Z,97767.29
2023-01-28T01:32:35.688Z,97768.17
2023-01-28T01:35:07.221Z,97763.04
2023-01-28T01:37:37.599Z,97759.56
2023-01-28T01:40:07.623Z,97759.82
2023-01-28T01:42:36.510Z,97756.10
2023-01-28T01:45:08.189Z,97755.29
2023-01-28T01:47:46.800Z,97751.04
2023-01-28T01:50:37.441Z,97753.34
2023-01-28T01:53:11.397Z,97760.54
2023-01-28T01:55:41.925Z,97758.23
2023-01-28T01:58:13.987Z,97763.39
2023-01-28T02:00:47.258Z,97763.61
2023-01-28T02:03:17.558Z,97756.21
2023-01-28T02:05:46.653Z,97754.91
2023-01-28T02:08:22.221Z,97751.36
2023-01-28T02:10:57.097Z,97742.35
2023-01-28T02:13:28.377Z,97736.50
2023-01-28T02:15:57.063Z,97742.23
2023-01-28T02:18:26.567Z,97737.93
2023-01-28T02:21:07.773Z,97737.34
2023-01-28T02:24:00.145Z,97729.42
2023-01-28T02:27:17.207Z,97729.45
2023-01-28T02:29:59.150Z,97726.98
2023-01-28T02:32:38.091Z,97729.92
2023-01-28T02:35:10.607Z,97730.48
2023-01-28T02:37:58.915Z,97735.80
2023-01-28T02:40:34.501Z,97740.70
2023-01-28T02:43:03.284Z,97739.22
2023-01-28T02:45:54.757Z,97740.02
2023-01-28T02:48:23.528Z,97737.30
2023-01-28T02:51:00.722Z,97744.67
2023-01-28T02:53:41.755Z,97741.73
2023-01-28T02:56:35.595Z,97743.52
2023-01-28T02:59:32.231Z,97739.52
2023-01-28T03:02:21.630Z,97737.67
2023-01-28T03:04:58.815Z,97736.82
2023-01-28T03:07:29.901Z,97737.27
2023-01-28T03:10:03.104Z,97735.42
2023-01-28T03:13:00.619Z,97733.52
2023-01-28T03:16:06.670Z,97727.69
2023-01-28T03:19:05.882Z,97725.13
2023-01-28T03:22:01.698Z,97718.90
2023-01-28T03:28:25.069Z,97707.22
2023-01-28T03:31:19.357Z,97712.77
2023-01-28T03:34:17.042Z,97708.63
2023-01-28T03:36:48.743Z,97708.73
2023-01-28T03:39:49.047Z,97708.33
2023-01-28T03:42:20.949Z,97712.11
2023-01-28T03:45:17.499Z,97694.64
2023-01-28T03:47:51.626Z,97696.39
2023-01-28T03:50:22.825Z,97699.29
2023-01-28T03:53:16.410Z,97699.49
2023-01-28T03:55:57.855Z,97692.23
2023-01-28T03:58:28.236Z,97694.02
2023-01-28T04:00:57.141Z,97696.77
2023-01-28T04:03:31.772Z,97692.58
2023-01-28T04:06:06.119Z,97690.05
2023-01-28T04:09:01.005Z,97682.75
2023-01-28T04:11:33.828Z,97679.15
2023-01-28T04:14:15.538Z,97678.74
2023-01-28T04:16:55.102Z,97678.12
2023-01-28T04:19:38.921Z,97677.20
2023-01-28T04:22:33.452Z,97671.05
2023-01-28T04:25:03.894Z,97669.89
2023-01-28T04:27:35.126Z,97667.19
2023-01-28T04:30:32.777Z,97660.02
2023-01-28T04:33:14.611Z,97656.20
2023-01-28T04:36:04.765Z,97655.98
2023-01-28T04:38:53.951Z,97648.73
2023-01-28T04:41:43.308Z,97643.09
2023-01-28T04:44:28.706Z,97640.09
2023-01-28T04:47:20.867Z,97640.29
2023-01-28T04:50:11.128Z,97632.70
2023-01-28T04:53:01.470Z,97624.99
2023-01-28T04:55:48.948Z,97629.16
2023-01-28T04:58:17.827Z,97627.55
2023-01-28T05:00:48.145Z,97628.48
2023-01-28T05:03:17.700Z,97630.33
2023-01-28T05:05:46.855Z,97629.55
2023-01-28T05:08:23.618Z,97628.16
2023-01-28T05:10:52.742Z,97633.26
2023-01-28T05:13:21.701Z,97641.71
2023-01-28T05:15:53.538Z,97645.95
2023-01-28T05:18:23.586Z,97644.56
2023-01-28T05:21:05.158Z,97643.03
2023-01-28T05:23:36.789Z,97642.44
2023-01-28T05:26:06.151Z,97634.21
2023-01-28T05:28:37.418Z,97634.06
2023-01-28T05:31:07.125Z,97629.39
2023-01-28T05:33:36.352Z,97634.23
2023-01-28T05:36:08.132Z,97631.73
2023-01-28T05:38:38.585Z,97630.40
2023-01-28T05:41:07.486Z,97628.08
2023-01-28T05:43:37.608Z,97630.28
2023-01-28T05:46:16.398Z,97628.11
2023-01-28T05:49:04.321Z,97623.92
2023-01-28T05:51:53.144Z,97624.46
2023-01-28T05:54:24.117Z,97631.05
2023-01-28T05:56:54.561Z,97630.86
2023-01-28T05:59:24.427Z,97632.73
2023-01-28T06:01:59.903Z,97636.86
2023-01-28T06:04:29.626Z,97636.23
2023-01-28T06:07:02.160Z,97634.17
2023-01-28T06:09:34.370Z,97629.82
2023-01-28T06:12:03.723Z,97631.20
2023-01-28T06:14:38.831Z,97629.83
2023-01-28T06:17:12.749Z,97629.02
2023-01-28T06:20:01.902Z,97625.90
2023-01-28T06:22:33.593Z,97630.44
2023-01-28T06:25:02.535Z,97631.89
2023-01-28T06:27:37.323Z,97630.09
2023-01-28T06:30:06.901Z,97632.86
2023-01-28T06:32:35.866Z,97633.27
2023-01-28T06:35:05.590Z,97626.78
2023-01-28T06:37:34.118Z,97616.80
2023-01-28T06:40:04.373Z,97613.09
2023-01-28T06:42:34.544Z,97606.46
2023-01-28T06:45:04.479Z,97601.45
2023-01-28T06:47:34.862Z,97584.58
2023-01-28T06:50:04.585Z,97576.05
2023-01-28T06:52:34.148Z,97575.93
2023-01-28T06:55:03.244Z,97571.94
2023-01-28T07:12:27.696Z,97449.19
2023-01-28T07:14:56.790Z,97401.73
2023-01-28T07:17:26.347Z,97432.67
2023-01-28T07:19:56.622Z,97449.50
2023-01-28T07:22:33.086Z,97466.09
2023-01-28T07:25:02.630Z,97477.41
2023-01-28T07:27:33.222Z,97494.30
2023-01-28T07:30:02.016Z,97509.86
2023-01-28T07:32:32.439Z,97531.68
2023-01-28T07:35:01.125Z,97546.59
2023-01-28T07:37:30.628Z,97572.09
2023-01-28T07:39:59.828Z,97589.02
2023-01-28T07:42:29.331Z,97608.23
2023-01-28T07:44:58.427Z,97622.89
2023-01-28T07:47:28.079Z,97630.98
2023-01-28T07:49:56.925Z,97637.16
2023-01-28T07:52:26.179Z,97653.11
2023-01-28T07:54:55.528Z,97661.81
2023-01-28T07:57:27.185Z,97690.01
2023-01-28T07:59:56.171Z,97721.38
2023-01-28T08:02:25.577Z,97744.48
2023-01-28T08:04:55.255Z,97769.22
2023-01-28T08:07:24.788Z,97788.76
2023-01-28T08:09:53.483Z,97816.92
2023-01-28T08:12:22.057Z,97841.08
2023-01-28T08:14:51.560Z,97857.27
2023-01-28T08:17:21.996Z,97880.48
2023-01-28T08:19:51.288Z,97893.42
2023-01-28T08:22:24.071Z,97906.81
2023-01-28T08:24:53.067Z,97912.15
2023-01-28T08:27:22.576Z,97921.72
2023-01-28T08:29:51.821Z,97921.30
2023-01-28T08:32:20.563Z,97916.42
2023-01-28T08:34:52.415Z,97912.89
2023-01-28T08:37:25.699Z,97912.15
2023-01-28T08:39:59.262Z,97905.86
2023-01-28T08:42:33.339Z,97901.45
2023-01-28T08:45:05.985Z,97892.33
2023-01-28T08:47:34.478Z,97881.91
2023-01-28T08:50:03.651Z,97862.85
2023-01-28T08:52:32.977Z,97855.98
2023-01-28T08:55:01.676Z,97846.24
2023-01-28T08:57:32.748Z,97836.66
2023-01-28T09:00:01.392Z,97820.95
2023-01-28T09:02:32.316Z,97804.16
2023-01-28T09:05:01.566Z,97792.30
2023-01-28T09:07:30.729Z,97784.46
2023-01-28T09:10:00.739Z,97773.87
2023-01-28T09:12:29.942Z,97766.87
2023-01-28T09:14:59.444Z,97755.43
2023-01-28T09:17:28.954Z,97739.08
2023-01-28T09:19:57.835Z,97720.38
2023-01-28T09:22:29.903Z,97705.42
2023-01-28T09:25:00.175Z,97702.45
2023-01-28T09:27:28.910Z,97694.98
2023-01-28T09:29:57.803Z,97691.41
2023-01-28T09:32:26.793Z,97686.75
2023-01-28T09:34:55.586Z,97679.56
2023-01-28T09:37:25.703Z,97682.21
2023-01-28T09:39:54.285Z,97678.49
2023-01-28T09:42:40.489Z,97672.70
2023-01-28T09:45:16.986Z,97663.79
2023-01-28T09:47:53.629Z,97652.15
2023-01-28T09:50:34.831Z,97644.05
2023-01-28T09:53:08.819Z,97633.85
2023-01-28T09:55:42.690Z,97624.32
2023-01-28T09:58:12.756Z,97619.09
2023-01-28T10:00:59.653Z,97603.99
2023-01-28T10:04:10.055Z,97590.42
2023-01-28T10:07:13.099Z,97574.91
2023-01-28T10:10:17.959Z,97563.74
2023-01-28T10:13:06.834Z,97553.92
2023-01-28T10:15:39.477Z,97550.15
2023-01-28T10:18:17.711Z,97544.66
2023-01-28T10:32:12.384Z,97395.61
2023-01-28T10:34:41.228Z,97338.66
2023-01-28T10:37:12.850Z,97377.99
2023-01-28T10:39:42.289Z,97404.09
2023-01-28T10:42:38.047Z,97424.15
2023-01-28T10:45:19.711Z,97441.68
2023-01-28T10:48:01.772Z,97462.94
2023-01-28T10:50:31.732Z,97479.68
2023-01-28T10:53:03.405Z,97493.73
2023-01-28T10:55:59.760Z,97497.25
2023-01-28T10:58:29.541Z,97499.89
2023-01-28T11:01:04.032Z,97508.69
2023-01-28T11:03:33.355Z,97515.89
2023-01-28T11:06:02.283Z,97528.58
2023-01-28T11:08:32.108Z,97541.67
2023-01-28T11:11:01.549Z,97544.25
2023-01-28T11:13:30.941Z,97549.77
2023-01-28T11:16:04.207Z,97553.79
2023-01-28T11:18:33.923Z,97552.50
2023-01-28T11:21:05.135Z,97556.52
2023-01-28T11:23:48.268Z,97563.84
2023-01-28T11:26:18.386Z,97565.99
2023-01-28T11:28:48.601Z,97574.36
2023-01-28T11:31:18.438Z,97577.70
2023-01-28T11:33:53.957Z,97573.53
2023-01-28T11:36:30.119Z,97570.70
2023-01-28T11:39:00.520Z,97573.23
2023-01-28T11:41:37.737Z,97582.09
2023-01-28T11:44:15.027Z,97590.13
2023-01-28T11:47:01.319Z,97592.65
2023-01-28T11:50:03.407Z,97589.41
2023-01-28T11:53:06.519Z,97588.38
2023-01-28T11:55:57.652Z,97586.89
2023-01-28T11:58:42.144Z,97586.92
2023-01-28T12:01:34.178Z,97590.47
2023-01-28T12:04:22.326Z,97591.05
2023-01-28T12:07:26.759Z,97593.35
2023-01-28T12:10:08.890Z,97585.52
2023-01-28T12:12:44.290Z,97582.92
2023-01-28T12:15:21.930Z,97583.35
2023-01-28T12:18:18.776Z,97581.65
2023-01-28T12:20:53.459Z,97584.52
2023-01-28T12:23:34.738Z,97590.95
2023-01-28T12:26:15.031Z,97594.09
2023-01-28T12:28:53.213Z,97596.83
2023-01-28T12:31:47.129Z,97590.27
2023-01-28T12:34:31.994Z,97580.33
2023-01-28T12:37:27.918Z,97578.42
2023-01-28T12:40:07.295Z,97580.09
2023-01-28T12:42:42.408Z,97582.38
2023-01-28T12:45:25.525Z,97591.12
2023-01-28T12:48:00.582Z,97594.54
2023-01-28T12:50:47.010Z,97603.36
2023-01-28T12:53:27.762Z,97613.74
2023-01-28T12:56:06.754Z,97626.95
2023-01-28T12:58:41.305Z,97633.80
2023-01-28T13:01:13.593Z,97645.60
2023-01-28T13:03:46.581Z,97654.05
2023-01-28T13:06:55.712Z,97663.84
2023-01-28T13:09:26.054Z,97670.18
2023-01-28T13:11:58.281Z,97688.52
2023-01-28T13:14:32.482Z,97698.08
2023-01-28T13:17:25.134Z,97710.46
2023-01-28T13:19:54.376Z,97715.27
2023-01-28T13:22:35.471Z,97721.27
2023-01-28T13:25:20.960Z,97724.25
2023-01-28T13:28:05.036Z,97734.80
2023-01-28T13:30:36.467Z,97742.74
2023-01-28T13:33:07.367Z,97748.11
2023-01-28T13:35:40.857Z,97753.56
2023-01-28T13:38:18.264Z,97756.73
2023-01-28T13:41:00.403Z,97766.38
2023-01-28T13:43:41.573Z,97764.08
2023-01-28T13:46:28.689Z,97771.05
2023-01-28T13:48:58.948Z,97772.16
2023-01-28T13:51:35.165Z,97780.24
2023-01-28T13:54:08.891Z,97785.02
2023-01-28T13:56:59.860Z,97793.21
2023-01-28T13:59:51.591Z,97798.70
2023-01-28T14:02:44.271Z,97802.23
2023-01-28T14:05:25.337Z,97808.04
2023-01-28T14:08:10.823Z,97819.98
2023-01-28T14:10:51.540Z,97819.14
2023-01-28T14:13:35.722Z,97822.27
2023-01-28T14:16:20.040Z,97825.27
2023-01-28T14:18:49.234Z,97827.84
2023-01-28T14:21:22.482Z,97831.16
2023-01-28T14:23:53.274Z,97833.64
2023-01-28T14:26:45.597Z,97838.23
2023-01-28T14:29:51.416Z,97841.63
2023-01-28T14:32:26.427Z,97839.84
2023-01-28T14:34:58.696Z,97845.30
2023-01-28T14:37:30.445Z,97856.19
2023-01-28T14:40:02.404Z,97860.39
2023-01-28T14:42:33.131Z,97865.26
2023-01-28T14:45:18.169Z,97867.10
2023-01-28T14:47:53.941Z,97872.30
2023-01-28T14:50:47.300Z,97886.09
2023-01-28T14:53:55.631Z,97884.06
2023-01-28T14:56:40.790Z,97889.14
2023-01-28T14:59:20.431Z,97897.68
2023-01-28T15:01:50.047Z,97898.09
2023-01-28T15:04:29.616Z,97900.52
2023-01-28T15:07:02.843Z,97905.82
2023-01-28T15:09:33.209Z,97910.65
2023-01-28T15:12:04.057Z,97913.84
2023-01-28T15:14:35.793Z,97919.18
2023-01-28T15:17:05.616Z,97923.61
2023-01-28T15:19:36.154Z,97926.84
2023-01-28T15:22:07.583Z,97928.32
2023-01-28T15:24:37.049Z,97931.23
2023-01-28T15:27:07.487Z,97938.43
2023-01-28T15:29:41.826Z,97939.41
2023-01-28T15:32:30.859Z,97939.85
2023-01-28T15:35:03.527Z,97943.80
2023-01-28T15:37:33.277Z,97945.51
2023-01-28T15:40:12.307Z,97950.29
2023-01-28T15:42:46.153Z,97954.23
2023-01-28T15:45:23.078Z,97953.25
2023-01-28T15:47:52.435Z,97958.70
2023-01-28T15:50:26.406Z,97968.08
2023-01-28T15:52:56.267Z,97971.66
2023-01-28T15:55:36.670Z,97977.70
2023-01-28T15:58:31.174Z,97977.73
2023-01-28T16:01:09.939Z,97982.50
2023-01-28T16:03:42.633Z,97988.45
2023-01-28T16:06:14.223Z,97994.40
2023-01-28T16:09:00.192Z,97991.73
2023-01-28T16:11:29.782Z,97993.66
2023-01-28T16:14:00.061Z,97995.94
2023-01-28T16:16:36.459Z,97996.39
2023-01-28T16:19:08.944Z,97995.52
2023-01-28T16:21:44.800Z,97996.65
2023-01-28T16:24:26.341Z,97998.12
2023-01-28T16:27:10.933Z,98001.58
2023-01-28T16:29:53.755Z,98004.44
2023-01-28T16:32:35.845Z,98011.01
2023-01-28T16:35:18.529Z,98011.17
2023-01-28T16:37:49.656Z,98011.60
2023-01-28T16:40:23.871Z,98010.22
2023-01-28T16:42:57.167Z,98010.84
2023-01-28T16:45:26.055Z,98012.50
2023-01-28T16:47:54.655Z,98010.56
2023-01-28T16:50:24.171Z,98014.30
2023-01-28T16:52:54.331Z,98012.79
2023-01-28T16:55:23.329Z,98018.25
2023-01-28T16:57:57.148Z,98025.61
2023-01-28T17:00:26.707Z,98028.18
2023-01-28T17:02:55.356Z,98029.32
2023-01-28T17:05:27.814Z,98030.85
2023-01-28T17:08:01.124Z,98034.44
2023-01-28T17:10:31.456Z,98044.02
2023-01-28T17:13:00.462Z,98045.46
2023-01-28T17:15:29.862Z,98046.61
2023-01-28T17:17:59.722Z,98044.41
2023-01-28T17:20:30.287Z,98042.14
2023-01-28T17:22:59.145Z,98044.94
2023-01-28T17:25:27.735Z,98046.67
2023-01-28T17:27:56.537Z,98048.07
2023-01-28T17:30:25.237Z,98051.21
2023-01-28T17:32:54.846Z,98045.23
2023-01-28T17:35:23.370Z,98045.06
2023-01-28T17:37:53.700Z,98043.43
2023-01-28T17:40:22.748Z,98043.95
2023-01-28T17:42:51.323Z,98039.75
2023-01-28T17:45:22.142Z,98045.77
2023-01-28T17:47:51.061Z,98042.09
2023-01-28T17:50:20.262Z,98039.17
2023-01-28T17:52:55.117Z,98036.83
2023-01-28T17:55:26.815Z,98036.50
2023-01-28T17:57:55.244Z,98037.50
2023-01-28T18:00:27.281Z,98035.60
2023-01-28T18:02:56.251Z,98039.40
2023-01-28T18:05:25.074Z,98042.48
2023-01-28T18:07:53.904Z,98042.76
2023-01-28T22:10:36.183Z,97933.83
2023-01-28T22:13:06.551Z,97863.16
2023-01-28T22:15:35.322Z,97860.55
2023-01-28T22:18:06.337Z,97859.14
2023-01-28T22:20:37.403Z,97858.64
2023-01-28T22:23:06.576Z,97854.91
2023-01-28T22:25:35.982Z,97851.27
2023-01-28T22:28:05.543Z,97847.23
2023-01-28T22:30:35.702Z,97842.69
2023-01-28T22:33:05.007Z,97834.11
2023-01-28T22:35:33.834Z,97821.30
2023-01-28T22:38:05.612Z,97810.61
2023-01-28T22:40:34.523Z,97800.26
2023-01-28T22:43:03.821Z,97792.54
2023-01-28T22:45:32.738Z,97780.09
2023-01-28T22:48:01.976Z,97771.24
2023-01-28T22:50:30.779Z,97762.86
2023-01-28T22:52:59.957Z,97748.64
2023-01-28T22:55:30.274Z,97741.60
2023-01-28T22:57:59.675Z,97739.98
2023-01-28T23:00:28.842Z,97734.91
2023-01-28T23:02:57.714Z,97732.77
2023-01-28T23:05:27.748Z,97727.13
2023-01-28T23:08:10.541Z,97724.27
2023-01-28T23:10:40.442Z,97712.39
2023-01-28T23:13:09.246Z,97706.40
2023-01-28T23:16:00.174Z,97694.49
2023-01-28T23:18:49.237Z,97679.67
2023-01-28T23:21:43.392Z,97669.84
2023-01-28T23:25:02.710Z,97660.63
2023-01-28T23:27:43.995Z,97644.38
2023-01-28T23:30:19.866Z,97640.48
2023-01-28T23:32:49.948Z,97637.00
2023-01-28T23:35:19.543Z,97631.83
2023-01-28T23:37:49.976Z,97623.84
2023-01-28T23:40:22.796Z,97619.80
2023-01-28T23:43:02.035Z,97612.46
2023-01-28T23:45:33.617Z,97606.25
2023-01-28T23:48:05.336Z,97595.86
2023-01-28T23:50:35.331Z,97589.05
2023-01-28T23:53:13.328Z,97582.38
2023-01-28T23:55:44.250Z,97575.77
2023-01-28T23:58:13.341Z,97572.49
